createdAt,value
2023-05-06T00:00:09.126Z,89.53
2023-05-06T00:02:37.213Z,82.05
2023-05-06T00:05:05.016Z,80.24
2023-05-06T00:07:32.721Z,83.80
2023-05-06T00:10:00.526Z,93.58
2023-05-06T00:12:29.570Z,86.84
2023-05-06T00:14:57.221Z,82.20
2023-05-06T00:17:24.994Z,80.35
2023-05-06T00:19:53.339Z,84.96
2023-05-06T00:22:21.055Z,94.78
2023-05-06T00:24:48.833Z,90.89
2023-05-06T00:27:16.510Z,81.96
2023-05-06T00:29:46.042Z,80.27
2023-05-06T00:32:13.781Z,80.20
2023-05-06T00:34:41.479Z,83.35
2023-05-06T00:37:09.374Z,84.65
2023-05-06T00:39:37.029Z,94.84
2023-05-06T00:42:04.956Z,97.68
2023-05-06T00:44:32.975Z,92.42
2023-05-06T00:47:02.719Z,88.34
2023-05-06T00:49:31.297Z,92.26
2023-05-06T00:52:00.639Z,81.35
2023-05-06T00:54:49.151Z,90.30
2023-05-06T00:57:16.780Z,100.00
2023-05-06T00:59:45.112Z,91.67
2023-05-06T01:02:14.213Z,89.36
2023-05-06T01:04:42.573Z,81.40
2023-05-06T01:07:25.680Z,81.78
2023-05-06T01:09:57.485Z,78.69
2023-05-06T01:12:30.640Z,76.66
2023-05-06T01:15:06.676Z,78.49
2023-05-06T01:17:38.241Z,80.22
2023-05-06T01:20:10.763Z,84.42
2023-05-06T01:22:39.366Z,87.00
2023-05-06T01:25:09.297Z,81.35
2023-05-06T01:27:37.318Z,78.19
2023-05-06T01:30:06.421Z,80.34
2023-05-06T01:32:42.005Z,75.89
2023-05-06T01:35:18.240Z,81.78
2023-05-06T01:37:52.517Z,80.00
2023-05-06T01:40:22.243Z,75.29
2023-05-06T01:42:50.872Z,74.63
2023-05-06T01:45:19.826Z,73.63
2023-05-06T01:47:48.411Z,77.89
2023-05-06T01:50:16.419Z,80.92
2023-05-06T01:52:44.062Z,77.94
2023-05-06T01:55:11.947Z,90.37
2023-05-06T01:57:41.132Z,99.61
2023-05-06T02:00:10.896Z,96.47
2023-05-06T02:02:38.680Z,96.38
2023-05-06T02:05:07.695Z,95.05
2023-05-06T02:07:35.836Z,92.16
2023-05-06T02:10:03.522Z,93.17
2023-05-06T02:12:31.372Z,93.75
2023-05-06T02:15:00.438Z,95.01
2023-05-06T02:17:28.090Z,86.94
2023-05-06T02:19:55.766Z,84.18
2023-05-06T02:22:23.436Z,89.63
2023-05-06T02:24:51.104Z,86.79
2023-05-06T02:27:18.740Z,81.48
2023-05-06T02:29:47.377Z,85.17
2023-05-06T02:32:16.457Z,93.49
2023-05-06T02:34:44.073Z,86.51
2023-05-06T02:37:11.745Z,83.68
2023-05-06T02:39:39.378Z,78.33
2023-05-06T02:42:07.048Z,75.43
2023-05-06T02:44:34.828Z,76.66
2023-05-06T02:47:02.504Z,75.08
2023-05-06T02:49:31.596Z,75.54
2023-05-06T02:51:59.334Z,78.81
2023-05-06T02:54:27.617Z,76.40
2023-05-06T02:56:55.302Z,73.88
2023-05-06T02:59:23.087Z,75.65
2023-05-06T03:01:50.774Z,74.91
2023-05-06T03:04:18.467Z,76.53
2023-05-06T03:06:47.572Z,76.63
2023-05-06T03:09:15.750Z,74.49
2023-05-06T03:11:47.005Z,77.32
2023-05-06T03:14:14.744Z,78.01
2023-05-06T03:16:42.536Z,78.94
2023-05-06T03:19:10.356Z,93.07
2023-05-06T03:21:38.331Z,89.84
2023-05-06T03:24:07.842Z,88.67
2023-05-06T03:26:35.761Z,92.14
2023-05-06T03:29:03.401Z,93.25
2023-05-06T03:31:31.149Z,81.35
2023-05-06T03:33:59.049Z,78.83
2023-05-06T03:36:28.194Z,87.22
2023-05-06T03:38:56.015Z,86.27
2023-05-06T03:41:25.753Z,84.56
2023-05-06T03:43:55.562Z,86.69
2023-05-06T03:46:23.344Z,85.70
2023-05-06T03:48:51.021Z,84.05
2023-05-06T03:51:18.674Z,83.56
2023-05-06T03:53:46.389Z,79.46
2023-05-06T03:56:14.059Z,84.95
2023-05-06T03:58:43.367Z,77.54
2023-05-06T04:01:11.040Z,76.65
2023-05-06T04:03:38.769Z,80.77
2023-05-06T04:06:07.215Z,83.72
2023-05-06T04:08:34.929Z,83.62
2023-05-06T04:11:05.840Z,87.15
2023-05-06T04:13:33.518Z,81.98
2023-05-06T04:16:02.736Z,87.87
2023-05-06T04:18:30.702Z,82.23
2023-05-06T04:20:58.405Z,87.62
2023-05-06T04:23:26.411Z,85.64
2023-05-06T04:25:54.055Z,88.50
2023-05-06T04:28:21.847Z,92.42
2023-05-06T04:30:49.509Z,85.02
2023-05-06T04:33:18.531Z,84.58
2023-05-06T04:35:54.331Z,86.86
2023-05-06T04:38:22.784Z,87.87
2023-05-06T04:40:50.977Z,84.96
2023-05-06T04:43:18.697Z,83.31
2023-05-06T04:45:49.599Z,79.73
2023-05-06T04:48:20.059Z,79.47
2023-05-06T04:50:47.708Z,76.90
2023-05-06T04:53:15.790Z,83.68
2023-05-06T04:55:43.775Z,82.51
2023-05-06T04:58:11.484Z,81.06
2023-05-06T05:00:39.244Z,81.74
2023-05-06T05:03:20.514Z,84.17
2023-05-06T05:05:48.225Z,83.22
2023-05-06T05:08:15.998Z,84.17
2023-05-06T05:10:44.035Z,91.59
2023-05-06T05:13:12.009Z,87.44
2023-05-06T05:15:39.832Z,88.83
2023-05-06T05:18:07.679Z,84.67
2023-05-06T05:20:36.785Z,84.91
2023-05-06T05:23:04.503Z,89.48
2023-05-06T05:25:32.177Z,87.28
2023-05-06T05:27:59.802Z,88.48
2023-05-06T05:30:27.792Z,90.18
2023-05-06T05:32:55.595Z,88.23
2023-05-06T05:35:23.315Z,86.59
2023-05-06T05:37:52.566Z,88.41
2023-05-06T05:40:20.347Z,84.80
2023-05-06T05:42:47.981Z,85.28
2023-05-06T05:45:15.885Z,84.53
2023-05-06T05:47:43.667Z,80.85
2023-05-06T05:50:11.729Z,85.49
2023-05-06T05:52:39.438Z,92.52
2023-05-06T05:55:09.615Z,95.04
2023-05-06T05:57:37.417Z,91.65
2023-05-06T06:00:05.818Z,85.80
2023-05-06T06:02:34.581Z,86.40
2023-05-06T06:05:02.316Z,84.21
2023-05-06T06:07:29.944Z,87.10
2023-05-06T06:09:57.632Z,85.55
2023-05-06T06:12:26.716Z,91.43
2023-05-06T06:14:54.505Z,89.44
2023-05-06T06:17:22.166Z,86.75
2023-05-06T06:19:50.714Z,91.69
2023-05-06T06:22:18.362Z,88.99
2023-05-06T06:24:46.002Z,89.97
2023-05-06T06:27:13.616Z,85.19
2023-05-06T06:29:42.686Z,86.28
2023-05-06T06:32:10.799Z,87.71
2023-05-06T06:34:38.508Z,90.58
2023-05-06T06:37:07.956Z,89.76
2023-05-06T06:39:35.894Z,87.42
2023-05-06T06:42:04.357Z,87.57
2023-05-06T06:44:32.257Z,88.68
2023-05-06T06:47:01.280Z,88.38
2023-05-06T06:49:28.991Z,93.71
2023-05-06T06:51:57.650Z,93.40
2023-05-06T06:54:25.547Z,92.59
2023-05-06T06:56:55.847Z,88.26
2023-05-06T06:59:23.503Z,86.42
2023-05-06T07:01:52.772Z,86.33
2023-05-06T07:04:21.842Z,83.62
2023-05-06T07:06:49.590Z,81.43
2023-05-06T07:09:17.319Z,87.05
2023-05-06T07:11:45.129Z,87.25
2023-05-06T07:14:13.580Z,90.33
2023-05-06T07:16:41.879Z,84.48
2023-05-06T07:19:10.558Z,84.22
2023-05-06T07:21:39.629Z,85.28
2023-05-06T07:24:08.323Z,79.93
2023-05-06T07:26:36.733Z,84.94
2023-05-06T07:29:05.295Z,75.39
2023-05-06T07:31:33.859Z,84.05
2023-05-06T07:34:01.799Z,82.72
2023-05-06T07:36:30.998Z,75.74
2023-05-06T07:39:00.039Z,83.63
2023-05-06T07:41:27.846Z,83.92
2023-05-06T07:43:55.460Z,87.38
2023-05-06T07:46:23.212Z,86.10
2023-05-06T07:48:51.243Z,83.68
2023-05-06T07:51:19.408Z,80.99
2023-05-06T07:53:47.064Z,84.61
2023-05-06T07:56:16.379Z,84.68
2023-05-06T07:58:44.023Z,82.47
2023-05-06T08:01:11.731Z,77.28
2023-05-06T08:03:39.555Z,73.87
2023-05-06T08:06:08.438Z,74.57
2023-05-06T08:08:38.304Z,77.70
2023-05-06T08:11:06.027Z,75.91
2023-05-06T08:13:35.162Z,78.81
2023-05-06T08:16:03.217Z,81.04
2023-05-06T08:18:31.074Z,76.20
2023-05-06T08:21:04.675Z,68.89
2023-05-06T08:23:32.709Z,68.87
2023-05-06T08:26:00.692Z,72.46
2023-05-06T08:28:29.300Z,67.87
2023-05-06T08:30:58.355Z,72.27
2023-05-06T08:33:26.128Z,72.29
2023-05-06T08:35:54.077Z,73.04
2023-05-06T08:38:21.726Z,75.50
2023-05-06T08:40:50.372Z,66.40
2023-05-06T08:43:21.547Z,65.92
2023-05-06T08:45:50.296Z,68.08
2023-05-06T08:48:19.534Z,72.46
2023-05-06T08:50:48.779Z,72.37
2023-05-06T08:53:16.886Z,60.83
2023-05-06T08:55:44.906Z,63.86
2023-05-06T08:58:15.716Z,63.73
2023-05-06T09:00:44.105Z,65.35
2023-05-06T09:03:11.929Z,67.87
2023-05-06T09:05:41.148Z,68.01
2023-05-06T09:08:08.807Z,79.77
2023-05-06T09:10:43.563Z,70.70
2023-05-06T09:13:13.454Z,71.13
2023-05-06T09:15:41.990Z,64.26
2023-05-06T09:18:10.173Z,64.92
2023-05-06T09:20:43.206Z,64.55
2023-05-06T09:23:12.091Z,59.69
2023-05-06T09:25:39.855Z,63.38
2023-05-06T09:28:09.176Z,70.81
2023-05-06T09:30:39.991Z,69.53
2023-05-06T09:33:08.083Z,80.85
2023-05-06T09:35:40.307Z,75.29
2023-05-06T09:38:09.997Z,70.53
2023-05-06T09:40:38.592Z,67.14
2023-05-06T09:43:06.693Z,76.78
2023-05-06T09:45:34.461Z,70.63
2023-05-06T09:48:02.240Z,66.59
2023-05-06T09:50:30.145Z,66.87
2023-05-06T09:52:57.805Z,66.62
2023-05-06T09:55:28.777Z,66.10
2023-05-06T09:57:57.003Z,65.62
2023-05-06T10:00:28.312Z,63.94
2023-05-06T10:02:56.507Z,65.99
2023-05-06T10:05:26.473Z,68.26
2023-05-06T10:07:56.226Z,62.51
2023-05-06T10:10:25.356Z,72.45
2023-05-06T10:12:54.983Z,62.36
2023-05-06T10:15:23.215Z,59.88
2023-05-06T10:17:52.841Z,59.11
2023-05-06T10:20:22.469Z,59.08
2023-05-06T10:22:57.905Z,62.27
2023-05-06T10:25:31.625Z,57.13
2023-05-06T10:28:01.407Z,57.25
2023-05-06T10:30:30.963Z,57.84
2023-05-06T10:33:00.847Z,56.69
2023-05-06T10:35:36.866Z,60.18
2023-05-06T10:40:50.242Z,55.49
2023-05-06T10:43:24.348Z,55.62
2023-05-06T10:46:00.811Z,57.18
2023-05-06T10:48:29.049Z,56.66
2023-05-06T10:51:25.378Z,54.93
2023-05-06T10:53:58.165Z,58.87
2023-05-06T10:56:26.093Z,55.41
2023-05-06T10:58:58.043Z,54.75
2023-05-06T11:01:27.898Z,53.93
2023-05-06T11:03:55.965Z,56.12
2023-05-06T11:06:34.303Z,51.86
2023-05-06T11:09:02.191Z,53.08
2023-05-06T11:11:48.310Z,52.98
2023-05-06T11:14:26.402Z,54.96
2023-05-06T11:16:55.043Z,51.88
2023-05-06T11:19:24.026Z,49.79
2023-05-06T11:21:52.119Z,52.09
2023-05-06T11:24:30.196Z,52.48
2023-05-06T11:27:01.257Z,46.69
2023-05-06T11:29:30.314Z,45.52
2023-05-06T11:31:58.054Z,48.91
2023-05-06T11:34:29.437Z,49.24
2023-05-06T11:37:00.719Z,46.52
2023-05-06T11:39:30.731Z,48.79
2023-05-06T11:42:03.062Z,47.72
2023-05-06T11:44:33.683Z,48.08
2023-05-06T11:47:04.491Z,48.99
2023-05-06T11:49:36.942Z,46.81
2023-05-06T11:52:05.488Z,42.79
2023-05-06T11:54:36.078Z,44.54
2023-05-06T11:57:04.075Z,50.10
2023-05-06T11:59:34.456Z,49.22
2023-05-06T12:02:03.910Z,45.07
2023-05-06T12:04:38.862Z,44.31
2023-05-06T12:07:07.617Z,43.35
2023-05-06T12:09:36.039Z,40.68
2023-05-06T12:12:04.592Z,40.67
2023-05-06T12:14:34.516Z,41.28
2023-05-06T12:17:02.282Z,43.88
2023-05-06T12:19:30.439Z,40.43
2023-05-06T12:22:15.310Z,41.55
2023-05-06T12:24:43.150Z,41.28
2023-05-06T12:27:10.824Z,42.53
2023-05-06T12:29:40.743Z,44.79
2023-05-06T12:32:10.385Z,44.98
2023-05-06T12:34:39.832Z,43.26
2023-05-06T12:37:08.630Z,46.57
2023-05-06T12:39:37.637Z,44.86
2023-05-06T12:42:06.149Z,43.00
2023-05-06T12:44:36.206Z,41.72
2023-05-06T12:47:07.494Z,40.23
2023-05-06T12:49:49.411Z,41.98
2023-05-06T12:52:17.976Z,40.54
2023-05-06T12:54:45.922Z,40.38
2023-05-06T12:57:13.852Z,40.76
2023-05-06T12:59:41.792Z,38.67
2023-05-06T13:02:11.130Z,39.12
2023-05-06T13:04:39.399Z,40.28
2023-05-06T13:07:07.509Z,40.27
2023-05-06T13:09:35.187Z,44.02
2023-05-06T13:12:04.624Z,39.25
2023-05-06T13:14:32.345Z,40.77
2023-05-06T13:17:04.662Z,38.92
2023-05-06T13:19:33.842Z,40.20
2023-05-06T13:22:02.080Z,38.09
2023-05-06T13:24:29.899Z,37.59
2023-05-06T13:26:59.437Z,40.14
2023-05-06T13:29:27.416Z,40.51
2023-05-06T13:31:55.466Z,40.17
2023-05-06T13:34:23.090Z,40.27
2023-05-06T13:36:54.488Z,39.23
2023-05-06T13:39:22.956Z,39.20
2023-05-06T13:41:51.203Z,40.30
2023-05-06T13:44:19.086Z,39.26
2023-05-06T13:46:47.077Z,40.90
2023-05-06T13:49:15.159Z,40.73
2023-05-06T13:51:42.940Z,40.58
2023-05-06T13:54:12.033Z,41.28
2023-05-06T13:56:39.768Z,40.35
2023-05-06T13:59:08.425Z,37.59
2023-05-06T14:01:36.879Z,41.00
2023-05-06T14:04:04.786Z,40.48
2023-05-06T14:06:32.583Z,41.26
2023-05-06T14:09:00.568Z,39.11
2023-05-06T14:11:29.644Z,36.32
2023-05-06T14:13:57.558Z,39.09
2023-05-06T14:16:25.380Z,37.82
2023-05-06T14:18:53.553Z,38.28
2023-05-06T14:21:21.928Z,38.49
2023-05-06T14:23:49.659Z,40.60
2023-05-06T14:26:17.409Z,42.22
2023-05-06T14:28:46.540Z,42.42
2023-05-06T14:31:14.274Z,41.72
2023-05-06T14:33:42.333Z,39.52
2023-05-06T14:36:12.650Z,39.58
2023-05-06T14:38:40.351Z,34.62
2023-05-06T14:41:08.196Z,35.63
2023-05-06T14:43:36.147Z,38.62
2023-05-06T14:46:05.608Z,42.96
2023-05-06T14:48:55.183Z,43.46
2023-05-06T14:51:22.867Z,45.41
2023-05-06T14:53:50.781Z,45.22
2023-05-06T14:56:18.522Z,38.15
2023-05-06T14:58:46.333Z,37.91
2023-05-06T15:01:15.489Z,37.43
2023-05-06T15:03:43.204Z,43.38
2023-05-06T15:06:11.613Z,43.40
2023-05-06T15:08:39.334Z,45.82
2023-05-06T15:11:07.044Z,45.49
2023-05-06T15:13:34.820Z,42.59
2023-05-06T15:16:02.583Z,44.07
2023-05-06T15:18:31.808Z,42.14
2023-05-06T15:21:01.564Z,42.43
2023-05-06T15:23:29.304Z,44.88
2023-05-06T15:25:57.950Z,44.17
2023-05-06T15:28:25.652Z,42.35
2023-05-06T15:30:53.403Z,42.84
2023-05-06T15:33:21.195Z,44.06
2023-05-06T15:35:50.430Z,43.56
2023-05-06T15:38:18.257Z,43.74
2023-05-06T15:40:50.940Z,39.22
2023-05-06T15:43:23.629Z,40.57
2023-05-06T15:45:52.067Z,40.14
2023-05-06T15:48:19.847Z,41.41
2023-05-06T15:50:48.248Z,46.91
2023-05-06T15:53:17.402Z,45.08
2023-05-06T15:55:49.740Z,48.46
2023-05-06T15:58:24.222Z,45.36
2023-05-06T16:00:52.093Z,47.16
2023-05-06T16:03:20.201Z,45.83
2023-05-06T16:05:48.359Z,44.70
2023-05-06T16:08:17.659Z,47.61
2023-05-06T16:10:46.036Z,46.84
2023-05-06T16:13:14.122Z,46.22
2023-05-06T16:15:42.010Z,47.49
2023-05-06T16:18:10.151Z,46.11
2023-05-06T16:20:38.549Z,47.42
2023-05-06T16:23:06.940Z,47.72
2023-05-06T16:25:38.488Z,49.91
2023-05-06T16:28:06.931Z,45.80
2023-05-06T16:30:34.701Z,45.63
2023-05-06T16:33:02.532Z,46.39
2023-05-06T16:35:30.472Z,46.16
2023-05-06T16:37:59.321Z,45.74
2023-05-06T16:40:27.871Z,49.14
2023-05-06T16:42:57.667Z,46.99
2023-05-06T16:45:27.728Z,46.75
2023-05-06T16:47:55.736Z,49.20
2023-05-06T16:50:23.585Z,48.10
2023-05-06T16:52:57.727Z,49.81
2023-05-06T16:55:25.503Z,47.09
2023-05-06T16:57:53.604Z,49.79
2023-05-06T17:00:23.740Z,54.08
2023-05-06T17:02:51.576Z,49.66
2023-05-06T17:05:21.431Z,49.72
2023-05-06T17:07:50.754Z,50.40
2023-05-06T17:10:18.914Z,50.83
2023-05-06T17:12:46.677Z,51.29
2023-05-06T17:15:14.504Z,52.38
2023-05-06T17:17:43.926Z,54.45
2023-05-06T17:20:12.523Z,53.62
2023-05-06T17:22:40.485Z,49.34
2023-05-06T17:25:08.956Z,52.07
2023-05-06T17:27:36.726Z,51.65
2023-05-06T17:30:07.047Z,54.16
2023-05-06T17:32:34.841Z,54.26
2023-05-06T17:35:06.508Z,55.56
2023-05-06T17:37:35.198Z,56.31
2023-05-06T17:40:03.439Z,54.60
2023-05-06T17:42:32.370Z,52.73
2023-05-06T17:45:00.491Z,54.82
2023-05-06T17:47:30.857Z,53.52
2023-05-06T17:50:00.766Z,56.61
2023-05-06T17:52:29.981Z,55.11
2023-05-06T17:55:11.766Z,56.15
2023-05-06T17:57:45.634Z,56.41
2023-05-06T18:00:26.881Z,55.11
2023-05-06T18:02:54.777Z,54.69
2023-05-06T18:05:24.726Z,57.12
2023-05-06T18:07:54.825Z,60.20
2023-05-06T18:10:22.641Z,59.29
2023-05-06T18:12:50.442Z,55.94
2023-05-06T18:15:19.546Z,59.85
2023-05-06T18:17:47.532Z,55.88
2023-05-06T18:20:16.865Z,59.40
2023-05-06T18:22:46.744Z,54.75
2023-05-06T18:25:16.627Z,67.86
2023-05-06T18:27:45.421Z,67.02
2023-05-06T18:30:15.880Z,69.95
2023-05-06T18:32:43.930Z,73.78
2023-05-06T18:35:12.457Z,81.41
2023-05-06T18:37:43.331Z,83.35
2023-05-06T18:40:12.212Z,88.11
2023-05-06T18:42:44.583Z,88.00
2023-05-06T18:45:13.397Z,95.13
2023-05-06T18:47:41.217Z,96.54
2023-05-06T18:50:09.938Z,98.06
2023-05-06T18:52:38.236Z,99.24
2023-05-06T18:55:08.877Z,100.00
2023-05-06T18:57:37.141Z,97.73
2023-05-06T19:00:08.537Z,100.00
2023-05-06T19:02:36.537Z,100.00
2023-05-06T19:05:06.328Z,100.00
2023-05-06T19:07:34.734Z,100.00
2023-05-06T19:10:02.474Z,96.68
2023-05-06T19:12:34.443Z,94.62
2023-05-06T19:15:02.278Z,95.62
2023-05-06T19:17:32.960Z,96.73
2023-05-06T19:20:01.257Z,95.97
2023-05-06T19:22:30.648Z,96.59
2023-05-06T19:24:58.445Z,95.17
2023-05-06T19:27:26.742Z,95.24
2023-05-06T19:29:55.175Z,98.10
2023-05-06T19:32:24.194Z,96.53
2023-05-06T19:34:53.962Z,100.00
2023-05-06T19:37:21.754Z,99.52
2023-05-06T19:39:50.100Z,100.00
2023-05-06T19:42:18.491Z,100.00
2023-05-06T19:44:49.039Z,99.08
2023-05-06T19:47:19.221Z,96.44
2023-05-06T19:49:48.391Z,97.47
2023-05-06T19:52:17.669Z,100.00
2023-05-06T19:54:46.142Z,100.00
2023-05-06T19:57:16.470Z,100.00
2023-05-06T19:59:44.938Z,100.00
2023-05-06T20:02:16.549Z,100.00
2023-05-06T20:04:44.441Z,96.24
2023-05-06T20:07:13.088Z,94.12
2023-05-06T20:09:43.155Z,95.28
2023-05-06T20:12:11.381Z,94.32
2023-05-06T20:14:39.135Z,89.63
2023-05-06T20:17:06.837Z,89.84
2023-05-06T20:19:34.809Z,92.24
2023-05-06T20:22:23.217Z,94.83
2023-05-06T20:24:53.148Z,89.91
2023-05-06T20:27:21.342Z,88.98
2023-05-06T20:29:51.571Z,89.82
2023-05-06T20:32:19.391Z,86.06
2023-05-06T20:34:47.413Z,83.96
2023-05-06T20:37:16.161Z,84.73
2023-05-06T20:39:44.796Z,82.43
2023-05-06T20:42:14.251Z,86.93
2023-05-06T20:44:41.914Z,95.05
2023-05-06T20:47:12.460Z,87.44
2023-05-06T20:49:40.229Z,88.73
2023-05-06T20:52:11.331Z,87.03
2023-05-06T20:54:39.568Z,88.48
2023-05-06T20:57:07.338Z,91.68
2023-05-06T20:59:36.894Z,90.94
2023-05-06T21:02:05.833Z,91.26
2023-05-06T21:04:33.920Z,85.14
2023-05-06T21:07:18.148Z,84.49
2023-05-06T21:09:46.385Z,84.90
2023-05-06T21:12:14.158Z,89.52
2023-05-06T21:14:43.244Z,89.70
2023-05-06T21:17:11.089Z,92.16
2023-05-06T21:19:38.872Z,87.97
2023-05-06T21:22:10.168Z,84.65
2023-05-06T21:24:37.848Z,85.86
2023-05-06T21:27:05.775Z,90.38
2023-05-06T21:29:33.466Z,95.15
2023-05-06T21:32:02.775Z,92.84
2023-05-06T21:34:31.181Z,88.38
2023-05-06T21:36:58.902Z,91.53
2023-05-06T21:39:26.871Z,91.01
2023-05-06T21:41:54.625Z,96.16
2023-05-06T21:44:22.411Z,95.55
2023-05-06T21:46:50.265Z,93.27
2023-05-06T21:49:21.886Z,88.39
2023-05-06T21:51:49.789Z,89.43
2023-05-06T21:54:18.374Z,91.61
2023-05-06T21:56:46.855Z,90.95
2023-05-06T21:59:14.555Z,91.46
2023-05-06T22:04:26.268Z,93.09
2023-05-06T22:06:53.976Z,89.90
2023-05-06T22:09:21.909Z,91.87
2023-05-06T22:11:49.565Z,93.20
2023-05-06T22:14:19.815Z,92.28
2023-05-06T22:16:50.260Z,97.36
2023-05-06T22:19:18.267Z,91.00
2023-05-06T22:21:47.396Z,93.28
2023-05-06T22:24:15.279Z,92.31
2023-05-06T22:26:43.002Z,93.14
2023-05-06T22:29:10.643Z,91.62
2023-05-06T22:31:38.386Z,90.85
2023-05-06T22:34:06.194Z,91.22
2023-05-06T22:36:34.105Z,94.86
2023-05-06T22:39:03.368Z,91.64
2023-05-06T22:41:31.258Z,88.47
2023-05-06T22:44:00.480Z,87.54
2023-05-06T22:46:29.004Z,89.30
2023-05-06T22:48:57.013Z,89.71
2023-05-06T22:51:25.210Z,85.46
2023-05-06T22:53:52.947Z,84.04
2023-05-06T22:56:22.089Z,85.06
2023-05-06T22:58:55.600Z,89.52
2023-05-06T23:01:25.198Z,91.46
2023-05-06T23:03:53.031Z,94.69
2023-05-06T23:06:20.758Z,90.21
2023-05-06T23:08:48.468Z,88.19
2023-05-06T23:11:16.147Z,86.08
2023-05-06T23:13:45.701Z,85.15
2023-05-06T23:16:14.596Z,89.81
2023-05-06T23:18:42.445Z,96.83
2023-05-06T23:21:12.481Z,91.14
2023-05-06T23:23:40.600Z,87.44
2023-05-06T23:26:08.469Z,84.42
2023-05-06T23:28:36.592Z,82.70
2023-05-06T23:31:05.879Z,81.57
2023-05-06T23:33:33.639Z,81.37
2023-05-06T23:36:02.738Z,84.84
2023-05-06T23:38:30.470Z,87.34
2023-05-06T23:40:58.472Z,89.44
2023-05-06T23:43:26.299Z,87.90
2023-05-06T23:45:54.027Z,91.80
2023-05-06T23:48:23.130Z,91.52
2023-05-06T23:50:50.843Z,90.08
2023-05-06T23:53:18.515Z,88.94
2023-05-06T23:55:46.225Z,83.87
2023-05-06T23:58:14.114Z,84.96
